Pilot Butte, Canada
Current Conditions -  °F | °C
As of 8:00 AM on Thursday 23 Oct 2014 (Local Time) from CYQR Reporting Station
Broken Clouds Broken Clouds  
Wind Chill: 27°   Ceiling: 25000
Heat Index: 34°   Visibility: 15mi
Dew Point: 32°   Wind: 8mph
Humidity: 93%   Direction: 120°ESE
Pressure: 29.74"   Gusts: NA
Location:  50.48°N, 104.42°W
Report Text: CYQR 231400Z 12007KT 15SM BKN250 01/M00 A2974 RMK CI6 SLP091
Loading
Personal Weather Stations






























Interactive Weather Map
Tropical Storm Tracking
New forecast layout! Learn more

10-Day Weather Forecast

Advertisements
Track Severe Weather on mobile